Here is the Quick Look data you requested

The Data originates at the National Weather Service, and is made available here by the UAlbany Department of Atmospheric and Environmental Sciences

Surface Observations

KCVG 151052Z 20005KT 3SM BR BKN004 OVC085 14/14 A2998 RMK AO2 SFC VIS 5 RAE33
 SLP149 BKN V OVC P0001 T01390139 $=
KCVG 151101Z 19007KT 3SM BR BKN005 OVC070 14/14 A2998 RMK AO2 SFC VIS 6
 T01390139 $=
KCVG 151152Z 26007KT 3SM -RA BR BKN006 OVC075 14/14 A3000 RMK AO2 SFC VIS 4
 RAB08 SLP156 P0001 60003 70010 T01440144 10144 20139 53011=
KCVG 151252Z 25008KT 4SM BR OVC008 14/13 A3003 RMK AO2 RAE1157 SLP165 P0000
 T01390133=
KCVG 151352Z 26011KT 7SM BKN007 OVC012 13/13 A3006 RMK AO2 SLP177 T01330128=
KCVG 151415Z 27009KT 3SM -RA BR OVC006 13/13 A3007 RMK AO2 SFC VIS 4 RAB06
 P0000 T01330128=
KCVG 151452Z 29008KT 3SM BR BKN006 BKN011 OVC017 13/12 A3007 RMK AO2 SFC VIS 6
 RAB06E38 SLP182 P0000 60000 T01280122 51024=
KCVG 151510Z 29009KT 10SM SCT008 OVC015 13/12 A3009 RMK AO2 T01280122=
KCVG 151512Z 30010KT 8SM SCT008 OVC014 13/12 A3009 RMK AO2 T01280122=
KCVG 151554Z 30011KT 3SM -RA BR SCT009 BKN014 OVC027 13/12 A3010 RMK AO2 SFC
 VIS 5 P0000 T01280122=
KCVG 151552Z 29009KT 6SM -RA BR SCT009 BKN014 OVC027 13/12 A3010 RMK AO2 RAB42
 SLP188 P0000 T01280122=
KCVG 151626Z 30013KT 3SM BR BKN009 OVC014 12/12 A3010 RMK AO2 SFC VIS 6 RAE11
 P0000 T01220117=
KCVG 151652Z 30012KT 8SM OVC010 12/11 A3012 RMK AO2 RAE11 SLP199 P0000
 T01220111=
KCVG 151735Z 29013KT 10SM SCT011 BKN019 OVC055 12/10 A3012 RMK AO2 T01220100=
KCVG 151752Z 29011KT 10SM FEW012 BKN021 OVC060 12/10 A3012 RMK AO2 SLP197 60000
 T01220100 10144 20122 50016=
KCVG 151852Z 31013KT 10SM OVC013 11/09 A3014 RMK AO2 SLP202 T01110089=
KCVG 151952Z 30011KT 10SM FEW010 BKN017 OVC022 11/08 A3015 RMK AO2 SLP207
 T01110083=
KCVG 152052Z 31012KT 10SM FEW022 BKN028 OVC060 11/07 A3016 RMK AO2 SLP210
 T01110072 51012=
KCVG 152152Z 30013KT 10SM BKN019 BKN026 BKN065 OVC200 10/07 A3018 RMK AO2
 SLP217 T01000067=
KCVG 152223Z 29012KT 10SM SCT018 BKN065 OVC250 09/07 A3019 RMK AO2 T00940067=
KCVG 152236Z 31008KT 10SM BKN015 BKN070 OVC250 09/07 A3019 RMK AO2 T00940067=
KCVG 152252Z 30008KT 10SM BKN017 BKN070 OVC250 09/06 A3019 RMK AO2 SLP222
 T00890061=
KCVG 152334Z 31009KT 10SM SCT023 BKN200 08/05 A3022 RMK AO2 T00830050=
KCVG 152352Z 31007KT 10SM FEW023 BKN200 08/05 A3023 RMK AO2 SLP234 T00830050
 10122 20083 53023=
KCVG 160052Z 32009KT 10SM OVC250 07/04 A3026 RMK AO2 SLP246 T00720044=
KCVG 160052Z COR 32009KT 10SM FEW020 OVC250 07/04 A3026 RMK AO2 SLP246
 T00720044=
KCVG 160152Z 32007KT 10SM FEW020 SCT200 OVC250 07/03 A3027 RMK AO2 SLP249
 T00670033=
KCVG 160252Z 30004KT 10SM OVC240 06/03 A3027 RMK AO2 SLP252 T00610033 51015=
KCVG 160352Z 00000KT 10SM OVC240 05/04 A3028 RMK AO2 SLP253 T00500039=
KCVG 160452Z 24003KT 10SM OVC250 04/04 A3029 RMK AO2 SLP256 T00440039 401440044=
KCVG 160552Z 31004KT 10SM OVC250 05/03 A3027 RMK AO2 SLP252 T00500033 10083
 20044 50000=
KCVG 160652Z 31003KT 10SM OVC250 05/04 A3028 RMK AO2 SLP253 T00500039=
KCVG 160752Z 00000KT 10SM BKN250 05/03 A3029 RMK AO2 SLP256 T00500033=
KCVG 160852Z 32005KT 10SM BKN250 03/02 A3028 RMK AO2 SLP255 T00330022 50002=
KCVG 160952Z VRB04KT 10SM OVC260 03/02 A3030 RMK AO2 SLP261 T00330022=
KCVG 161052Z 33003KT 10SM BKN300 04/02 A3029 RMK AO2 SLP260 T00390022=
KCVG 161152Z 00000KT 10SM SCT250 BKN300 04/03 A3028 RMK AO2 SLP255 T00390028
 10050 20033 58001=
KCVG 161252Z 00000KT 7SM BKN240 BKN300 04/03 A3030 RMK AO2 SLP261 T00390028=
KCVG 161352Z 00000KT 10SM SCT240 BKN300 06/03 A3030 RMK AO2 SLP261 T00610028=
KCVG 161452Z 00000KT 10SM FEW250 BKN300 08/02 A3029 RMK AO2 SLP259 T00780022
 50005=
KCVG 161552Z 00000KT 10SM FEW180 BKN250 09/02 A3028 RMK AO2 SLP255 T00940022=
KCVG 161652Z 00000KT 9SM SCT220 BKN250 11/03 A3025 RMK AO2 SLP243 T01060028=
KCVG 161752Z 22006KT 10SM BKN240 12/03 A3023 RMK AO2 SLP235 T01170033 10117
 20033 58022=
KCVG 161852Z VRB03KT 10SM SCT200 BKN250 12/02 A3019 RMK AO2 SLP224 T01170017=
KCVG 161952Z 21004KT 10SM BKN220 12/03 A3017 RMK AO2 SLP216 T01170033=
KCVG 162052Z 20007KT 10SM BKN230 11/02 A3016 RMK AO2 SLP215 VIRGA SW T01060022
 56021=
KCVG 162152Z 20006KT 10SM BKN200 BKN250 10/03 A3015 RMK AO2 SLP211 T01000033=
KCVG 162252Z 23004KT 10SM BKN250 09/03 A3015 RMK AO2 SLP211 T00940033=